In Rescue
 
Open Full Screen Window  High Contrast Mode
Wind Gusting 25 knots
18
March 29, 2020 9:15 PM EDT
Present Weather: Light Snow
Weather Information
Wind Direction
  360 °
Wind Speed
  18 kt (21 mph)
Wind Gust
  25 kt (29 mph)
Altimeter
29.65 in
Visibility
2 1/2 SM
Temperature
01° C
34° F
Dewpoint
00° C
32° F
Humidity
93%
1hr Rain Fall
00.00 in.
24hr Rain Fall
00.68 in.
Sky Condition
Overcast @ 500 ft
IFR

METAR KSAW 300115Z AUTO 36018G25KT 2 1/2SM -SN OVC005 01/00 A2965 RMK AO2 T00100003

FAA Disclaimer: The data displayed is for advisory purposes only and is not to be used for flight planning or operations.